Latest Coastal Weather Observations for Merimbula

IDN60701

Issued at 4:01 am EST Wednesday 8 July 2015 (issued every 10 minutes, with the page automatically refreshed every 10 minutes)

About coastal observations | Map of coastal stations | Coastal observations for NSW | Marine services | Other Formats
Station Details ID: 069147 Name: MERIMBULA AIRPORT AWS Lat: -36.91 Lon: 149.90 Height: 1.5 m
Data from the previous 72 hours. | See also: Recent months at Merimbula
Date/Time
EST
Temp

°C
Wind Pressure Rain
since 9am
mm
Weather Cloud Vis
km
Sea
Height
m
Swell
Dir
 
Speed
knots
Gust
knots
hPa Trend Height
m
Period
s
Dir
08/04:00am 4.8 NW 5 7 1027.3 - 0.0 - - 10 - - - -
08/03:30am 4.1 NW 5 7 1027.3 - 0.0 - - 10 - - - -
08/03:00am 3.4 WSW 5 6 1027.2 - 0.0 - - 10 - - - -
08/02:30am 3.3 SW 5 6 1027.4 - 0.0 - - 10 - - - -
08/02:00am 3.3 SW 4 5 1027.2 - 0.0 - - 10 - - - -
08/01:30am 3.4 SW 5 6 1027.0 - 0.0 - - 10 - - - -
08/01:00am 3.3 WSW 3 5 1027.0 - 0.0 - - 10 - - - -
08/12:30am 3.4 SW 5 6 1026.9 - 0.0 - - 10 - - - -
08/12:00am 3.2 WSW 4 5 1026.8 - 0.0 - - 21 - - - -
 
Date/Time
EST
Temp

°C
Wind Pressure Rain
since 9am
mm
Weather Cloud Vis
km
Sea
Height
m
Swell
Dir
 
Speed
knots
Gust
knots
hPa Trend Height
m
Period
s
Dir
07/11:30pm 3.5 WSW 4 5 1026.9 - 0.0 - - 10 - - - -
07/11:00pm 3.7 WSW 4 4 1026.8 - 0.0 - - 10 - - - -
07/10:30pm 4.4 SSW 4 5 1026.6 - 0.0 - - 10 - - - -
07/10:00pm 5.2 SW 6 7 1026.3 - 0.0 - - 10 - - - -
07/09:30pm 4.9 SW 4 6 1026.2 - 0.0 - - 10 - - - -
07/09:00pm 5.4 WSW 3 4 1026.1 - 0.0 - - 10 - - - -
07/08:30pm 5.5 CALM 0 5 1025.9 - 0.0 - - 10 - - - -
07/08:00pm 5.4 CALM 0 0 1025.7 - 0.0 - - 10 - - - -
07/07:30pm 6.1 WSW 5 6 1025.6 - 0.0 - - 10 - - - -
07/07:00pm 6.7 NW 3 6 1025.3 - 0.0 - Partly cloudy 10 - - - -
07/06:30pm 6.5 W 2 4 1024.9 - 0.0 - - 10 - - - -
07/06:00pm 7.4 SW 3 5 1024.5 - 0.0 - - 10 - - - -
07/05:30pm 8.5 WSW 5 6 1024.0 - 0.0 - - 10 - - - -
07/05:00pm 10.1 WSW 5 5 1023.6 - 0.0 - - 10 - - - -
07/04:30pm 11.4 SW 5 7 1023.1 - 0.0 - - 10 - - - -
07/04:00pm 12.6 SSW 7 9 1022.8 - 0.0 - Partly cloudy 10 - - - -
07/03:30pm 13.1 SSW 8 12 1022.4 - 0.0 - Partly cloudy 10 - - - -
07/03:00pm 13.2 SW 8 12 1022.1 - 0.0 - - 10 - - - -
07/02:30pm 14.6 SSW 6 11 1021.7 - 0.0 - - 10 - - - -
07/02:00pm 14.8 SW 7 10 1021.7 - 0.0 - - 10 - - - -
07/01:30pm 15.0 SW 9 14 1021.7 - 0.0 - - 10 - - - -
07/01:00pm 13.7 SSW 7 12 1021.6 - 0.0 - Partly cloudy 10 - - - -
07/12:30pm 14.7 SW 10 16 1021.8 - 0.0 - - 10 - - - -
07/12:00pm 14.4 SSW 9 15 1022.0 - 0.0 - - 10 - - - -
07/11:30am 13.5 SSW 9 15 1022.2 - 0.0 - Partly cloudy 10 - - - -
07/11:00am 12.8 WSW 7 11 1022.2 - 0.0 - - 10 - - - -
07/10:30am 11.9 SW 7 11 1022.3 - 0.0 - Partly cloudy 10 - - - -
07/10:00am 12.0 SW 7 10 1022.2 - 0.0 - Cloudy 10 - - - -
07/09:30am 12.3 SW 7 12 1021.9 - 0.0 - Partly cloudy 10 - - - -
07/09:00am 10.6 W 6 9 1021.5 - 3.6 Recent precip. Mostly clear 10 - - - -
07/08:30am 10.0 WSW 6 7 1021.2 - 3.6 - Partly cloudy 10 - - - -
07/08:00am 9.3 SW 4 6 1020.9 - 3.4 - Partly cloudy 10 - - - -
07/07:30am 8.9 W 5 6 1020.4 - 3.4 - Partly cloudy 10 - - - -
07/07:00am 9.2 WSW 5 7 1019.9 - 3.4 - Partly cloudy 10 - - - -
07/06:30am 9.3 SW 4 6 1019.4 - 3.4 - Cloudy 10 - - - -
07/06:00am 9.4 WSW 5 7 1018.6 - 3.4 Recent precip. Partly cloudy 10 - - - -
07/05:30am 9.4 WSW 5 7 1018.5 - 3.4 - Partly cloudy 10 - - - -
07/05:23am 9.4 WSW 5 7 1018.3 - 3.4 - Partly cloudy 10 - - - -
07/05:08am 9.3 SW 4 5 1018.2 - 3.4 - Partly cloudy 5 - - - -
07/05:00am 9.3 SW 4 6 1018.1 - 3.0 - Partly cloudy 10 - - - -
07/04:44am 9.3 W 4 5 1017.9 - 2.8 - Partly cloudy 10 - - - -
07/04:30am 9.2 WSW 5 6 1017.7 - 2.6 - Partly cloudy 3 - - - -
07/04:19am 9.2 SW 5 6 1017.8 - 2.2 - Partly cloudy 5 - - - -
07/04:11am 9.2 SW 5 6 1017.8 - 2.0 - Cloudy 10 - - - -
07/04:00am 9.2 SW 4 5 1017.6 - 2.0 - Partly cloudy 5 - - - -
07/03:54am 9.2 SSW 4 5 1017.6 - 1.8 - Partly cloudy 5 - - - -
07/03:30am 9.4 SW 5 8 1017.3 - 1.8 - Partly cloudy 10 - - - -
07/03:00am 9.5 WSW 4 6 1017.4 - 1.8 Recent precip. Cloudy 10 - - - -
07/02:41am 9.6 SW 5 7 1017.4 - 1.8 - Partly cloudy 10 - - - -
07/02:30am 9.7 SW 6 8 1017.4 - 1.8 - Partly cloudy 5 - - - -
07/02:29am 9.8 SW 6 9 1017.4 - 1.8 - Partly cloudy 5 - - - -
07/02:00am 10.0 SSW 5 8 1017.2 - 1.0 - Partly cloudy 10 - - - -
07/01:30am 11.4 SW 9 14 1016.5 - 0.2 - Cloudy 10 - - - -
07/01:00am 12.1 SW 8 14 1016.1 - 0.2 - Partly cloudy 10 - - - -
07/12:30am 11.8 SW 6 8 1015.8 - 0.2 - Partly cloudy 10 - - - -
07/12:00am 11.4 WSW 5 10 1015.8 - 0.2 - Partly cloudy 10 - - - -
 
Date/Time
EST
Temp

°C
Wind Pressure Rain
since 9am
mm
Weather Cloud Vis
km
Sea
Height
m
Swell
Dir
 
Speed
knots
Gust
knots
hPa Trend Height
m
Period
s
Dir
06/11:30pm 11.1 W 5 11 1015.6 - 0.2 - - 10 - - - -
06/11:00pm 11.2 WSW 5 8 1015.7 - 0.2 - - 10 - - - -
06/10:30pm 11.5 SW 6 11 1015.5 - 0.2 - - 10 - - - -
06/10:00pm 10.6 SW 1 8 1015.4 - 0.2 - Partly cloudy 10 - - - -
06/09:30pm 11.2 W 4 8 1015.2 - 0.2 - Partly cloudy 10 - - - -
06/09:00pm 11.1 WNW 6 10 1015.0 - 0.2 - Cloudy 10 - - - -
06/08:30pm 11.8 W 5 11 1015.0 - 0.2 - Partly cloudy 10 - - - -
06/08:00pm 11.8 W 6 9 1015.0 - 0.2 - Partly cloudy 10 - - - -
06/07:30pm 11.0 W 5 8 1014.9 - 0.2 - Partly cloudy 10 - - - -
06/07:00pm 10.9 SW 1 5 1015.0 - 0.2 - Partly cloudy 10 - - - -
06/06:30pm 10.6 CALM 0 3 1014.7 - 0.2 - Partly cloudy 10 - - - -
06/06:00pm 11.5 SSW 5 9 1014.5 - 0.2 Recent precip. Mostly cloudy 10 - - - -
06/05:30pm 11.1 SW 4 8 1014.2 - 0.2 - Cloudy 10 - - - -
06/05:00pm 12.5 SW 5 6 1013.8 - 0.0 - Partly cloudy 10 - - - -
06/04:30pm 13.4 SW 3 11 1013.7 - 0.0 - Cloudy 10 - - - -
06/04:00pm 13.8 SW 4 5 1013.5 - 0.0 - Partly cloudy 10 - - - -
06/03:30pm 14.4 SSW 7 10 1013.3 - 0.0 - Partly cloudy 10 - - - -
06/03:00pm 15.2 SW 8 11 1013.1 - 0.0 - Partly cloudy 10 - - - -
06/02:30pm 16.3 SW 6 8 1012.8 - 0.0 - Partly cloudy 10 - - - -
06/02:00pm 15.2 SSW 9 12 1012.8 - 0.0 - Partly cloudy 10 - - - -
06/01:30pm 16.0 SW 8 11 1012.8 - 0.0 - Partly cloudy 10 - - - -
06/01:00pm 16.3 SSW 8 13 1013.0 - 0.0 - Partly cloudy 10 - - - -
06/12:30pm 17.0 W 4 6 1013.2 - 0.0 - - 10 - - - -
06/12:00pm 16.5 WNW 5 7 1013.6 - 0.0 - - 10 - - - -
06/11:30am 15.9 W 7 9 1014.2 - 0.0 - - 10 - - - -
06/11:00am 14.9 W 7 11 1014.5 - 0.0 - - 10 - - - -
06/10:30am 14.2 W 8 11 1014.8 - 0.0 - - 10 - - - -
06/10:00am 13.1 W 8 12 1015.0 - 0.0 - - 10 - - - -
06/09:30am 12.3 W 3 8 1015.1 - 0.0 - - 10 - - - -
06/09:00am 11.1 WNW 5 9 1015.1 - 0.0 - - 10 - - - -
06/08:30am 9.2 NW 5 8 1015.1 - 0.0 - - 10 - - - -
06/08:00am 7.3 W 1 6 1015.1 - 0.0 - - 10 - - - -
06/07:30am 6.4 CALM 0 0 1015.1 - 0.0 - - 10 - - - -
06/07:00am 6.6 NNW 5 8 1014.8 - 0.0 - - 10 - - - -
06/06:30am 6.7 NW 6 8 1014.7 - 0.0 - - 10 - - - -
06/06:00am 6.7 NNW 6 8 1014.5 - 0.0 - Partly cloudy 10 - - - -
06/05:30am 6.7 WNW 5 6 1014.4 - 0.0 - - 10 - - - -
06/05:00am 5.6 CALM 0 3 1014.6 - 0.0 - - 10 - - - -
06/04:30am 6.2 NW 5 6 1014.6 - 0.0 - - 10 - - - -
06/04:00am 5.8 WNW 5 6 1014.7 - 0.0 - - 10 - - - -
06/03:30am 4.7 W 3 5 1014.9 - 0.0 - - 10 - - - -
06/03:00am 5.0 SW 4 4 1015.2 - 0.0 - - 10 - - - -
06/02:30am 5.5 SW 4 5 1015.6 - 0.0 - - 10 - - - -
06/02:00am 6.0 SW 4 5 1015.8 - 0.0 - - 10 - - - -
06/01:30am 5.8 SW 3 4 1016.0 - 0.0 - - 10 - - - -
06/01:00am 6.5 W 4 5 1016.3 - 0.0 - Partly cloudy 10 - - - -
06/12:30am 6.2 SW 4 5 1016.5 - 0.0 - - 10 - - - -
06/12:00am 6.1 SW 4 6 1016.7 - 0.0 - - 10 - - - -
 
Date/Time
EST
Temp

°C
Wind Pressure Rain
since 9am
mm
Weather Cloud Vis
km
Sea
Height
m
Swell
Dir
 
Speed
knots
Gust
knots
hPa Trend Height
m
Period
s
Dir
05/11:30pm 6.6 CALM 0 0 1016.8 - 0.0 - - 10 - - - -
05/11:00pm 6.2 CALM 0 0 1017.0 - 0.0 - - 10 - - - -
05/10:30pm 6.2 CALM 0 0 1017.0 - 0.0 - - 10 - - - -
05/10:00pm 6.7 CALM 0 0 1017.3 - 0.0 - - 10 - - - -
05/09:30pm 6.5 CALM 0 0 1017.5 - 0.0 - - 10 - - - -
05/09:00pm 6.9 CALM 0 0 1017.6 - 0.0 - Mostly cloudy 10 - - - -
05/08:30pm 7.3 CALM 0 0 1017.7 - 0.0 - - 10 - - - -
05/08:00pm 7.1 CALM 0 0 1017.8 - 0.0 - - 10 - - - -
05/07:30pm 7.0 CALM 0 0 1017.8 - 0.0 - - 10 - - - -
05/07:00pm 7.6 CALM 0 0 1017.7 - 0.0 - - 10 - - - -
05/06:30pm 8.0 CALM 0 0 1017.6 - 0.0 - - 10 - - - -
05/06:00pm 8.9 CALM 0 0 1017.4 - 0.0 - - 10 - - - -
05/05:30pm 10.6 CALM 0 0 1017.2 - 0.0 - - 10 - - - -
05/05:00pm 11.9 CALM 0 0 1017.1 - 0.0 - - 10 - - - -
05/04:30pm 14.4 CALM 0 0 1016.9 - 0.0 - - 10 - - - -
05/04:00pm 16.5 CALM 0 4 1016.9 - 0.0 - - 10 - - - -
05/03:30pm 15.6 E 3 5 1016.8 - 0.0 - - 10 - - - -
05/03:00pm 16.3 ENE 6 7 1016.7 - 0.0 - - 10 - - - -
05/02:30pm 17.4 CALM 0 0 1017.0 - 0.0 - - 10 - - - -
05/02:00pm 17.0 E 5 6 1017.1 - 0.0 - - 10 - - - -
05/01:30pm 17.2 E 2 7 1017.2 - 0.0 - Partly cloudy 10 - - - -
05/01:00pm 17.6 E 4 5 1017.5 - 0.0 - Partly cloudy 10 - - - -
05/12:30pm 17.1 SE 3 6 1018.0 - 0.0 - Partly cloudy 10 - - - -
05/12:00pm 16.8 NW 1 4 1018.5 - 0.0 - - 10 - - - -
05/11:30am 15.6 CALM 0 0 1019.2 - 0.0 - - 10 - - - -
05/11:00am 14.7 SSW 3 5 1019.6 - 0.0 - Partly cloudy 10 - - - -
05/10:30am 14.1 WSW 1 4 1019.8 - 0.0 - Partly cloudy 10 - - - -
05/10:00am 12.6 WNW 4 6 1020.0 - 0.0 - Partly cloudy 10 - - - -
05/09:30am 11.0 WNW 2 4 1019.9 - 0.0 - Cloudy 10 - - - -
05/09:00am 9.6 CALM 0 0 1019.9 - 0.0 - Mostly cloudy 10 - - - -
05/08:30am 8.7 CALM 0 0 1019.6 - 0.0 - Cloudy 10 - - - -
05/08:00am 8.0 CALM 0 0 1019.6 - 0.0 - Cloudy 10 - - - -
05/07:30am 7.1 SSW 1 3 1019.7 - 0.0 - Cloudy 10 - - - -
05/07:00am 7.3 SW 5 6 1019.6 - 0.0 - Cloudy 10 - - - -
05/06:30am 7.4 WSW 5 6 1019.4 - 0.0 - Cloudy 10 - - - -
05/06:00am 6.9 SW 4 5 1019.1 - 0.0 - Cloudy 10 - - - -
05/05:30am 6.6 WSW 4 5 1019.1 - 0.0 - Cloudy 10 - - - -
05/05:00am 6.4 CALM 0 0 1019.2 - 0.0 - Cloudy 10 - - - -
05/04:30am 6.6 CALM 0 0 1019.2 - 0.0 - Cloudy 10 - - - -

Other Formats:

Comma delimited format used in spreadsheet applications
http://www.bom.gov.au/fwo/IDN60701/IDN60701.95929.axf

JavaScript Object Notation format (JSON) in row-major order
http://www.bom.gov.au/fwo/IDN60701/IDN60701.95929.json